createdAt,value
2023-04-04T00:01:09.925Z,50.90
2023-04-04T00:03:38.712Z,50.80
2023-04-04T00:06:07.667Z,50.80
2023-04-04T00:08:36.045Z,50.90
2023-04-04T00:11:06.484Z,50.90
2023-04-04T00:13:35.138Z,50.90
2023-04-04T00:16:03.443Z,50.90
2023-04-04T00:18:32.659Z,50.90
2023-04-04T00:21:01.021Z,50.90
2023-04-04T00:23:29.608Z,50.90
2023-04-04T00:25:57.958Z,50.90
2023-04-04T00:28:27.609Z,51.50
2023-04-04T00:30:56.397Z,50.90
2023-04-04T00:33:24.885Z,51.00
2023-04-04T00:35:53.339Z,50.90
2023-04-04T00:38:21.692Z,51.00
2023-04-04T00:40:51.995Z,50.90
2023-04-04T00:43:20.423Z,51.00
2023-04-04T00:45:51.300Z,50.90
2023-04-04T00:48:20.025Z,50.90
2023-04-04T00:50:48.437Z,50.90
2023-04-04T00:53:17.526Z,50.90
2023-04-04T00:55:46.125Z,50.90
2023-04-04T00:58:14.452Z,50.90
2023-04-04T01:00:44.198Z,51.00
2023-04-04T01:03:14.512Z,50.90
2023-04-04T01:05:42.972Z,50.90
2023-04-04T01:08:11.822Z,50.90
2023-04-04T01:10:41.598Z,51.00
2023-04-04T01:13:10.781Z,51.00
2023-04-04T01:15:39.264Z,51.00
2023-04-04T01:18:08.761Z,51.00
2023-04-04T01:20:45.901Z,51.10
2023-04-04T01:23:14.762Z,51.20
2023-04-04T01:25:47.089Z,51.20
2023-04-04T01:28:16.363Z,51.20
2023-04-04T01:30:46.884Z,51.20
2023-04-04T01:33:23.817Z,51.10
2023-04-04T01:36:03.632Z,51.10
2023-04-04T01:38:42.288Z,51.80
2023-04-04T01:41:13.230Z,51.30
2023-04-04T01:43:47.555Z,51.30
2023-04-04T01:46:18.647Z,51.30
2023-04-04T01:48:48.632Z,51.40
2023-04-04T01:51:22.359Z,51.50
2023-04-04T01:53:50.810Z,51.40
2023-04-04T01:56:21.620Z,51.40
2023-04-04T01:58:50.088Z,51.50
2023-04-04T02:01:18.434Z,51.50
2023-04-04T02:03:47.451Z,51.50
2023-04-04T02:06:15.908Z,51.50
2023-04-04T02:08:44.342Z,51.60
2023-04-04T02:11:13.492Z,51.60
2023-04-04T02:13:44.519Z,51.60
2023-04-04T02:16:15.971Z,51.60
2023-04-04T02:18:44.805Z,51.60
2023-04-04T02:21:13.170Z,51.60
2023-04-04T02:23:41.538Z,51.70
2023-04-04T02:26:09.923Z,51.70
2023-04-04T02:28:39.108Z,51.80
2023-04-04T02:31:08.791Z,51.80
2023-04-04T02:33:37.198Z,51.80
2023-04-04T02:36:08.120Z,51.90
2023-04-04T02:38:36.534Z,51.90
2023-04-04T02:41:07.190Z,52.00
2023-04-04T02:43:35.508Z,52.00
2023-04-04T02:46:20.447Z,52.00
2023-04-04T02:48:52.236Z,52.00
2023-04-04T02:51:20.871Z,52.00
2023-04-04T02:53:49.214Z,52.00
2023-04-04T02:56:29.229Z,52.00
2023-04-04T02:58:57.809Z,52.10
2023-04-04T03:01:27.545Z,52.10
2023-04-04T03:03:56.096Z,52.10
2023-04-04T03:06:24.758Z,52.20
2023-04-04T03:08:53.119Z,52.30
2023-04-04T03:11:21.699Z,52.20
2023-04-04T03:13:52.373Z,52.30
2023-04-04T03:16:25.162Z,52.30
2023-04-04T03:18:56.791Z,52.30
2023-04-04T03:21:25.282Z,52.40
2023-04-04T03:23:53.566Z,52.40
2023-04-04T03:26:21.910Z,52.40
2023-04-04T03:28:50.290Z,52.40
2023-04-04T03:31:21.849Z,52.40
2023-04-04T03:33:50.416Z,52.40
2023-04-04T03:36:20.035Z,52.40
2023-04-04T03:38:51.203Z,52.50
2023-04-04T03:41:19.954Z,52.50
2023-04-04T03:43:48.361Z,52.40
2023-04-04T03:46:17.036Z,52.50
2023-04-04T03:48:47.555Z,52.50
2023-04-04T03:51:15.959Z,52.40
2023-04-04T03:53:47.239Z,52.50
2023-04-04T03:56:15.812Z,52.50
2023-04-04T03:58:44.322Z,52.50
2023-04-04T04:01:17.990Z,52.60
2023-04-04T04:03:46.853Z,52.50
2023-04-04T04:06:15.299Z,52.50
2023-04-04T04:08:43.732Z,52.60
2023-04-04T04:11:13.742Z,52.50
2023-04-04T04:13:42.162Z,52.50
2023-04-04T04:16:10.765Z,52.50
2023-04-04T04:18:39.284Z,52.60
2023-04-04T04:21:12.318Z,52.50
2023-04-04T04:23:43.330Z,52.50
2023-04-04T04:26:13.095Z,52.60
2023-04-04T04:28:42.191Z,52.70
2023-04-04T04:31:15.713Z,52.70
2023-04-04T04:33:48.783Z,52.70
2023-04-04T04:36:19.319Z,52.90
2023-04-04T04:38:57.971Z,52.80
2023-04-04T04:41:31.356Z,52.90
2023-04-04T04:44:02.260Z,52.80
2023-04-04T04:46:30.744Z,52.80
2023-04-04T04:49:00.335Z,52.80
2023-04-04T04:51:31.787Z,52.90
2023-04-04T04:54:00.937Z,52.90
2023-04-04T04:56:31.486Z,52.90
2023-04-04T04:59:09.212Z,52.90
2023-04-04T05:01:40.114Z,53.00
2023-04-04T05:04:08.543Z,52.90
2023-04-04T05:06:43.479Z,52.90
2023-04-04T05:09:13.682Z,52.90
2023-04-04T05:11:44.194Z,52.90
2023-04-04T05:14:14.373Z,53.10
2023-04-04T05:16:51.829Z,53.00
2023-04-04T05:19:20.388Z,53.00
2023-04-04T05:21:54.068Z,53.00
2023-04-04T05:24:37.161Z,53.10
2023-04-04T05:27:07.078Z,53.10
2023-04-04T05:29:41.479Z,53.10
2023-04-04T05:32:09.884Z,53.10
2023-04-04T05:34:40.420Z,53.20
2023-04-04T05:37:13.532Z,53.10
2023-04-04T05:39:42.246Z,53.20
2023-04-04T05:42:13.663Z,53.20
2023-04-04T05:44:48.115Z,53.20
2023-04-04T05:47:16.944Z,53.20
2023-04-04T05:49:48.116Z,53.40
2023-04-04T05:52:16.425Z,53.30
2023-04-04T05:54:45.113Z,53.30
2023-04-04T05:57:20.725Z,53.40
2023-04-04T05:59:55.222Z,53.50
2023-04-04T06:02:23.775Z,53.40
2023-04-04T06:04:56.275Z,53.40
2023-04-04T06:07:32.392Z,53.40
2023-04-04T06:10:00.880Z,53.30
2023-04-04T06:12:30.784Z,53.30
2023-04-04T06:14:59.533Z,53.40
2023-04-04T06:17:28.141Z,53.30
2023-04-04T06:19:56.654Z,53.30
2023-04-04T06:22:25.029Z,53.30
2023-04-04T06:24:56.042Z,53.30
2023-04-04T06:27:27.178Z,53.30
2023-04-04T06:29:57.269Z,53.40
2023-04-04T06:32:25.867Z,53.40
2023-04-04T06:34:54.937Z,53.30
2023-04-04T06:37:37.343Z,53.60
2023-04-04T06:40:13.864Z,53.30
2023-04-04T06:42:50.541Z,53.50
2023-04-04T06:45:20.703Z,53.30
2023-04-04T06:47:51.714Z,53.20
2023-04-04T06:50:20.338Z,53.20
2023-04-04T06:52:50.275Z,53.20
2023-04-04T06:55:19.162Z,53.20
2023-04-04T06:57:47.556Z,53.20
2023-04-04T07:00:17.391Z,53.20
2023-04-04T07:02:47.290Z,53.20
2023-04-04T07:05:18.066Z,53.20
2023-04-04T07:07:47.666Z,53.10
2023-04-04T07:10:16.317Z,53.10
2023-04-04T07:12:44.660Z,53.10
2023-04-04T07:15:13.682Z,53.20
2023-04-04T07:17:42.453Z,53.30
2023-04-04T07:20:13.562Z,53.20
2023-04-04T07:22:44.398Z,53.20
2023-04-04T07:25:13.417Z,53.10
2023-04-04T07:27:41.999Z,53.00
2023-04-04T07:30:12.087Z,53.00
2023-04-04T07:32:40.684Z,53.00
2023-04-04T07:35:11.206Z,53.00
2023-04-04T07:37:39.531Z,53.00
2023-04-04T07:40:09.755Z,53.00
2023-04-04T07:42:38.176Z,52.80
2023-04-04T07:45:07.636Z,52.80
2023-04-04T07:47:36.186Z,52.80
2023-04-04T07:50:04.976Z,52.70
2023-04-04T07:52:35.696Z,52.70
2023-04-04T07:55:05.889Z,52.70
2023-04-04T07:57:34.369Z,52.60
2023-04-04T08:00:04.003Z,52.60
2023-04-04T08:02:42.200Z,52.50
2023-04-04T08:05:11.332Z,52.50
2023-04-04T08:07:40.951Z,52.50
2023-04-04T08:10:11.285Z,52.60
2023-04-04T08:12:40.289Z,52.40
2023-04-04T08:15:09.838Z,52.40
2023-04-04T08:17:38.366Z,52.40
2023-04-04T08:20:08.925Z,52.40
2023-04-04T08:22:37.222Z,52.40
2023-04-04T08:25:07.671Z,52.50
2023-04-04T08:27:35.992Z,52.30
2023-04-04T08:30:05.052Z,52.30
2023-04-04T08:32:33.468Z,52.10
2023-04-04T08:35:01.873Z,52.10
2023-04-04T08:37:31.077Z,52.00
2023-04-04T08:40:00.607Z,51.60
2023-04-04T08:42:35.807Z,51.50
2023-04-04T08:45:06.894Z,51.20
2023-04-04T08:47:36.820Z,51.10
2023-04-04T08:50:07.392Z,51.00
2023-04-04T08:52:36.971Z,51.00
2023-04-04T08:55:08.227Z,51.70
2023-04-04T08:57:37.934Z,51.20
2023-04-04T09:00:08.906Z,51.70
2023-04-04T09:02:47.928Z,51.30
2023-04-04T09:05:17.685Z,51.40
2023-04-04T09:07:46.502Z,51.20
2023-04-04T09:10:14.974Z,51.00
2023-04-04T09:12:47.590Z,51.00
2023-04-04T09:15:16.951Z,50.80
2023-04-04T09:17:45.317Z,50.60
2023-04-04T09:20:40.792Z,50.60
2023-04-04T09:23:13.257Z,50.50
2023-04-04T09:26:02.413Z,50.90
2023-04-04T09:28:34.722Z,50.50
2023-04-04T09:31:05.964Z,50.40
2023-04-04T09:33:35.845Z,50.20
2023-04-04T09:36:10.409Z,50.20
2023-04-04T09:38:43.183Z,50.20
2023-04-04T09:41:12.053Z,49.30
2023-04-04T09:43:42.711Z,49.80
2023-04-04T09:46:11.620Z,49.70
2023-04-04T09:48:40.346Z,49.30
2023-04-04T09:51:13.513Z,49.50
2023-04-04T09:53:42.184Z,50.20
2023-04-04T09:56:11.328Z,50.60
2023-04-04T09:58:49.447Z,50.00
2023-04-04T10:01:26.055Z,49.70
2023-04-04T10:03:55.793Z,49.90
2023-04-04T10:06:25.581Z,50.00
2023-04-04T10:08:54.364Z,49.90
2023-04-04T10:11:31.910Z,49.80
2023-04-04T10:14:03.973Z,49.20
2023-04-04T10:16:34.509Z,49.30
2023-04-04T10:19:05.073Z,49.20
2023-04-04T10:21:33.662Z,49.30
2023-04-04T10:24:09.018Z,49.30
2023-04-04T10:26:37.997Z,49.00
2023-04-04T10:29:07.817Z,48.60
2023-04-04T10:31:43.709Z,48.50
2023-04-04T10:34:19.218Z,48.60
2023-04-04T10:36:50.796Z,48.80
2023-04-04T10:39:27.209Z,49.00
2023-04-04T10:41:57.520Z,48.80
2023-04-04T10:44:34.633Z,48.90
2023-04-04T10:47:14.696Z,48.50
2023-04-04T10:49:45.726Z,48.60
2023-04-04T10:52:17.115Z,47.70
2023-04-04T10:54:46.571Z,48.00
2023-04-04T10:57:15.601Z,47.80
2023-04-04T11:00:06.558Z,47.80
2023-04-04T11:02:55.690Z,47.60
2023-04-04T11:05:27.229Z,47.20
2023-04-04T11:08:07.587Z,47.80
2023-04-04T11:10:38.617Z,48.00
2023-04-04T11:13:14.099Z,48.80
2023-04-04T11:15:57.598Z,48.00
2023-04-04T11:18:47.495Z,47.70
2023-04-04T11:21:18.441Z,48.20
2023-04-04T11:24:14.749Z,48.60
2023-04-04T11:26:45.639Z,48.00
2023-04-04T11:29:25.111Z,48.40
2023-04-04T11:31:54.951Z,47.70
2023-04-04T11:34:34.173Z,47.30
2023-04-04T11:37:17.987Z,47.20
2023-04-04T11:39:56.710Z,46.60
2023-04-04T11:42:25.161Z,47.00
2023-04-04T11:45:09.700Z,46.90
2023-04-04T11:47:42.290Z,46.70
2023-04-04T11:50:13.642Z,47.00
2023-04-04T11:52:43.836Z,47.50
2023-04-04T11:55:21.923Z,47.50
2023-04-04T11:57:51.375Z,47.30
2023-04-04T12:00:33.156Z,46.50
2023-04-04T12:03:03.103Z,45.30
2023-04-04T12:05:31.972Z,45.80
2023-04-04T12:08:02.572Z,46.10
2023-04-04T12:10:33.478Z,46.10
2023-04-04T12:13:02.742Z,46.20
2023-04-04T12:15:31.462Z,46.30
2023-04-04T12:18:00.279Z,46.50
2023-04-04T12:20:30.805Z,46.50
2023-04-04T12:22:59.284Z,46.20
2023-04-04T12:25:33.861Z,45.60
2023-04-04T12:28:04.156Z,45.10
2023-04-04T12:30:33.297Z,44.90
2023-04-04T12:33:01.880Z,44.90
2023-04-04T12:35:33.061Z,45.10
2023-04-04T12:38:07.549Z,45.10
2023-04-04T12:40:38.238Z,44.90
2023-04-04T12:43:08.880Z,45.10
2023-04-04T12:45:41.682Z,45.30
2023-04-04T12:48:13.810Z,45.40
2023-04-04T12:50:57.804Z,45.40
2023-04-04T12:53:29.308Z,44.80
2023-04-04T12:56:04.595Z,45.20
2023-04-04T12:58:35.908Z,44.70
2023-04-04T13:01:05.760Z,44.40
2023-04-04T13:03:37.820Z,44.60
2023-04-04T13:06:14.844Z,44.30
2023-04-04T13:08:53.268Z,43.60
2023-04-04T13:11:22.401Z,44.20
2023-04-04T13:14:02.135Z,44.10
2023-04-04T13:16:34.414Z,43.70
2023-04-04T13:19:03.450Z,44.40
2023-04-04T13:21:33.184Z,44.30
2023-04-04T13:24:04.109Z,44.00
2023-04-04T13:26:32.604Z,44.00
2023-04-04T13:29:00.954Z,44.30
2023-04-04T13:31:29.329Z,44.30
2023-04-04T13:33:57.692Z,44.20
2023-04-04T13:36:28.421Z,43.90
2023-04-04T13:38:58.210Z,44.00
2023-04-04T13:41:26.611Z,43.80
2023-04-04T13:43:56.607Z,43.60
2023-04-04T13:46:25.120Z,43.30
2023-04-04T13:48:53.635Z,43.60
2023-04-04T13:51:22.155Z,43.90
2023-04-04T13:53:50.495Z,44.10
2023-04-04T13:56:21.320Z,44.30
2023-04-04T13:58:50.962Z,44.50
2023-04-04T14:01:19.446Z,44.60
2023-04-04T14:03:49.036Z,44.40
2023-04-04T14:06:17.475Z,43.90
2023-04-04T14:08:46.714Z,44.00
2023-04-04T14:11:16.004Z,44.10
2023-04-04T14:13:46.231Z,44.20
2023-04-04T14:16:14.849Z,43.90
2023-04-04T14:18:43.894Z,44.40
2023-04-04T14:21:12.350Z,44.00
2023-04-04T14:23:40.679Z,44.20
2023-04-04T14:26:09.082Z,43.90
2023-04-04T14:28:38.548Z,43.40
2023-04-04T14:31:08.393Z,43.80
2023-04-04T14:33:36.780Z,43.40
2023-04-04T14:36:05.571Z,43.50
2023-04-04T14:38:33.962Z,43.50
2023-04-04T14:41:02.434Z,43.20
2023-04-04T14:43:30.963Z,43.60
2023-04-04T14:45:59.326Z,43.70
2023-04-04T14:48:28.962Z,43.70
2023-04-04T14:50:57.320Z,43.00
2023-04-04T14:53:25.943Z,43.20
2023-04-04T14:55:54.303Z,43.40
2023-04-04T14:58:22.631Z,43.70
2023-04-04T15:00:52.301Z,44.00
2023-04-04T15:03:20.654Z,43.50
2023-04-04T15:05:50.704Z,43.70
2023-04-04T15:08:19.025Z,43.50
2023-04-04T15:10:47.446Z,43.50
2023-04-04T15:13:15.752Z,43.40
2023-04-04T15:15:44.354Z,43.40
2023-04-04T15:18:12.647Z,43.50
2023-04-04T15:20:41.026Z,43.20
2023-04-04T15:23:10.830Z,43.30
2023-04-04T15:25:39.152Z,43.40
2023-04-04T15:28:07.404Z,43.60
2023-04-04T15:30:35.870Z,43.70
2023-04-04T15:33:04.284Z,44.00
2023-04-04T15:35:32.745Z,44.10
2023-04-04T15:38:01.295Z,44.00
2023-04-04T15:40:31.027Z,44.10
2023-04-04T15:42:59.589Z,44.00
2023-04-04T15:45:28.342Z,43.80
2023-04-04T15:47:56.680Z,43.80
2023-04-04T15:50:24.984Z,43.70
2023-04-04T15:52:53.349Z,43.50
2023-04-04T15:55:22.221Z,43.40
2023-04-04T15:57:51.927Z,43.50
2023-04-04T16:00:21.152Z,43.50
2023-04-04T16:02:49.687Z,43.50
2023-04-04T16:05:18.180Z,43.40
2023-04-04T16:07:46.802Z,43.30
2023-04-04T16:10:15.227Z,43.20
2023-04-04T16:12:43.845Z,43.10
2023-04-04T16:15:13.736Z,43.10
2023-04-04T16:17:42.536Z,43.20
2023-04-04T16:20:12.464Z,43.30
2023-04-04T16:22:40.882Z,43.40
2023-04-04T16:25:10.310Z,43.30
2023-04-04T16:27:38.687Z,43.40
2023-04-04T16:30:08.768Z,43.40
2023-04-04T16:32:38.500Z,43.50
2023-04-04T16:35:08.868Z,43.60
2023-04-04T16:37:37.198Z,43.70
2023-04-04T16:40:06.778Z,43.70
2023-04-04T16:42:35.189Z,43.70
2023-04-04T16:45:03.837Z,43.70
2023-04-04T16:47:32.245Z,43.70
2023-04-04T16:50:02.015Z,43.70
2023-04-04T16:52:30.516Z,43.30
2023-04-04T16:54:58.872Z,43.30
2023-04-04T16:57:28.447Z,43.30
2023-04-04T16:59:57.234Z,43.20
2023-04-04T17:02:25.619Z,43.30
2023-04-04T17:04:54.087Z,43.40
2023-04-04T17:07:23.736Z,43.40
2023-04-04T17:09:52.547Z,43.30
2023-04-04T17:12:21.567Z,43.40
2023-04-04T17:14:49.881Z,43.30
2023-04-04T17:17:18.415Z,43.20
2023-04-04T17:19:46.783Z,43.20
2023-04-04T17:22:16.098Z,43.30
2023-04-04T17:24:46.182Z,43.30
2023-04-04T17:27:14.831Z,43.20
2023-04-04T17:29:43.079Z,43.20
2023-04-04T17:32:11.896Z,43.10
2023-04-04T17:34:40.538Z,43.20
2023-04-04T17:37:11.197Z,43.20
2023-04-04T17:39:39.528Z,43.20
2023-04-04T17:42:09.555Z,43.20
2023-04-04T17:44:38.154Z,43.10
2023-04-04T17:47:08.497Z,43.10
2023-04-04T17:49:37.192Z,43.00
2023-04-04T17:52:05.936Z,43.10
2023-04-04T17:54:34.215Z,43.30
2023-04-04T17:57:03.563Z,43.20
2023-04-04T17:59:33.259Z,43.50
2023-04-04T18:02:01.689Z,43.30
2023-04-04T18:04:30.061Z,43.20
2023-04-04T18:06:59.077Z,43.30
2023-04-04T18:09:28.955Z,43.40
2023-04-04T18:11:57.668Z,43.50
2023-04-04T18:14:26.284Z,43.60
2023-04-04T18:16:56.076Z,43.80
2023-04-04T18:19:24.475Z,44.00
2023-04-04T18:21:59.684Z,44.10
2023-04-04T18:24:28.256Z,44.20
2023-04-04T18:26:57.302Z,44.30
2023-04-04T18:29:26.850Z,44.90
2023-04-04T18:31:56.723Z,44.40
2023-04-04T18:34:25.057Z,44.40
2023-04-04T18:36:53.400Z,44.30
2023-04-04T18:39:21.967Z,44.30
2023-04-04T18:41:51.175Z,44.40
2023-04-04T18:44:19.568Z,44.50
2023-04-04T18:46:48.038Z,44.60
2023-04-04T18:49:17.788Z,44.60
2023-04-04T18:51:47.440Z,44.60
2023-04-04T18:54:15.862Z,44.60
2023-04-04T18:56:44.299Z,44.60
2023-04-04T18:59:12.595Z,44.60
2023-04-04T19:01:40.979Z,44.70
2023-04-04T19:04:09.582Z,44.80
2023-04-04T19:06:40.579Z,44.90
2023-04-04T19:09:11.143Z,44.90
2023-04-04T19:11:39.841Z,44.90
2023-04-04T19:14:09.386Z,44.90
2023-04-04T19:16:38.013Z,44.90
2023-04-04T19:19:06.358Z,44.90
2023-04-04T19:21:34.764Z,45.10
2023-04-04T19:24:04.833Z,45.10
2023-04-04T19:26:33.352Z,45.20
2023-04-04T19:29:01.928Z,45.20
2023-04-04T19:31:33.129Z,45.30
2023-04-04T19:34:03.583Z,45.50
2023-04-04T19:36:37.554Z,45.40
2023-04-04T19:39:10.789Z,45.50
2023-04-04T19:41:42.429Z,45.50
2023-04-04T19:44:19.833Z,45.70
2023-04-04T19:46:48.470Z,45.60
2023-04-04T19:49:17.967Z,45.70
2023-04-04T19:51:53.179Z,45.70
2023-04-04T19:54:29.836Z,45.60
2023-04-04T19:57:04.122Z,45.70
2023-04-04T20:00:02.001Z,45.80
2023-04-04T20:03:03.185Z,45.80
2023-04-04T20:06:10.347Z,45.90
2023-04-04T20:08:44.400Z,45.90
2023-04-04T20:11:15.098Z,47.00
2023-04-04T20:13:45.164Z,46.00
2023-04-04T20:16:15.973Z,45.90
2023-04-04T20:18:47.050Z,46.10
2023-04-04T20:21:17.725Z,45.90
2023-04-04T20:23:52.478Z,46.00
2023-04-04T20:26:58.353Z,46.10
2023-04-04T20:29:28.988Z,46.10
2023-04-04T20:31:59.642Z,46.20
2023-04-04T20:34:41.768Z,46.30
2023-04-04T20:37:14.412Z,46.30
2023-04-04T20:39:49.321Z,46.40
2023-04-04T20:42:41.031Z,46.40
2023-04-04T20:45:46.596Z,46.60
2023-04-04T20:48:40.995Z,46.60
2023-04-04T20:51:24.583Z,46.60
2023-04-04T20:53:55.859Z,46.60
2023-04-04T20:56:53.074Z,46.60
2023-04-04T20:59:34.920Z,46.60
2023-04-04T21:02:16.869Z,46.60
2023-04-04T21:04:48.326Z,46.70
2023-04-04T21:07:41.671Z,46.70
2023-04-04T21:10:25.950Z,46.80
2023-04-04T21:12:55.846Z,46.90
2023-04-04T21:15:30.056Z,46.90
2023-04-04T21:18:02.651Z,47.00
2023-04-04T21:21:13.081Z,46.90
2023-04-04T21:23:48.192Z,47.00
2023-04-04T21:26:34.483Z,47.00
2023-04-04T21:29:06.281Z,47.00
2023-04-04T21:31:43.048Z,47.10
2023-04-04T21:34:16.108Z,47.10
2023-04-04T21:36:45.993Z,47.10
2023-04-04T21:39:16.928Z,47.10
2023-04-04T21:41:46.035Z,47.20
2023-04-04T21:44:14.523Z,47.10
2023-04-04T21:46:45.945Z,47.30
2023-04-04T21:49:14.586Z,47.10
2023-04-04T21:51:43.137Z,47.10
2023-04-04T21:54:11.967Z,47.10
2023-04-04T21:56:40.766Z,47.20
2023-04-04T21:59:10.740Z,47.30
2023-04-04T22:01:40.744Z,47.20
2023-04-04T22:04:10.837Z,47.30
2023-04-04T22:06:39.383Z,47.30
2023-04-04T22:09:08.021Z,47.30
2023-04-04T22:11:44.247Z,47.30
2023-04-04T22:14:18.225Z,47.60
2023-04-04T22:16:46.875Z,47.50
2023-04-04T22:19:16.929Z,47.30
2023-04-04T22:21:48.343Z,47.30
2023-04-04T22:24:18.216Z,47.30
2023-04-04T22:26:47.322Z,47.40
2023-04-04T22:29:15.934Z,47.30
2023-04-04T22:31:44.475Z,47.20
2023-04-04T22:34:14.966Z,47.20
2023-04-04T22:36:45.287Z,47.40
2023-04-04T22:39:16.182Z,47.30
2023-04-04T22:41:45.678Z,47.30
2023-04-04T22:44:14.187Z,47.30
2023-04-04T22:46:42.997Z,47.30
2023-04-04T22:49:11.379Z,47.40
2023-04-04T22:51:45.604Z,47.40
2023-04-04T22:54:17.184Z,47.40
2023-04-04T22:56:46.101Z,47.50
2023-04-04T22:59:14.825Z,47.50
2023-04-04T23:01:43.320Z,47.50
2023-04-04T23:04:11.939Z,47.70
2023-04-04T23:06:40.331Z,47.60
2023-04-04T23:09:08.918Z,47.60
2023-04-04T23:11:39.061Z,47.60
2023-04-04T23:14:09.635Z,47.70
2023-04-04T23:16:40.133Z,47.70
2023-04-04T23:19:08.499Z,47.90
2023-04-04T23:21:38.052Z,47.70
2023-04-04T23:24:08.055Z,47.80
2023-04-04T23:26:37.874Z,47.80
2023-04-04T23:29:06.639Z,47.70
2023-04-04T23:31:36.488Z,47.70
2023-04-04T23:34:04.922Z,47.70
2023-04-04T23:36:33.566Z,47.70
2023-04-04T23:39:02.017Z,47.80
2023-04-04T23:41:30.331Z,48.00
2023-04-04T23:44:00.158Z,48.00
2023-04-04T23:46:30.340Z,47.80
2023-04-04T23:48:58.849Z,47.80
2023-04-04T23:51:30.396Z,47.80
2023-04-04T23:54:00.419Z,47.80
2023-04-04T23:56:28.703Z,47.80
2023-04-04T23:58:57.074Z,47.80
